Time;durP1;ratioP1;P1;durP2;ratioP2;P2;SDS_P1;SDS_P2;PMS_P1;PMS_P2;Temp;Humidity;BMP_temperature;BMP_pressure;BME280_temperature;BME280_humidity;BME280_pressure;Samples;Min_cycle;Max_cycle;Signal;HPM_P1;HPM_P2
2022/01/16 00:04:30;;;;;;;27.17;17.70;;;3.80;99.90;;;;;;5018910;28;20683;-79
2022/01/16 00:06:55;;;;;;;25.87;17.30;;;3.90;99.90;;;;;;5021348;28;20174;-80
2022/01/16 00:09:21;;;;;;;25.20;17.30;;;3.90;99.90;;;;;;5017598;28;20267;-79
2022/01/16 00:11:47;;;;;;;24.87;16.97;;;4.00;99.90;;;;;;5018235;28;20276;-79
2022/01/16 00:14:15;;;;;;;27.73;18.20;;;4.00;99.90;;;;;;5004192;28;20206;-80
2022/01/16 00:16:41;;;;;;;23.97;17.07;;;4.00;99.90;;;;;;5003670;28;20190;-79
2022/01/16 00:19:07;;;;;;;23.80;17.50;;;4.00;99.90;;;;;;5020932;28;20244;-79
2022/01/16 00:21:38;;;;;;;26.23;18.47;;;4.10;99.90;;;;;;5024032;28;20209;-80
2022/01/16 00:24:05;;;;;;;27.37;18.67;;;4.10;99.90;;;;;;5028101;28;20333;-80
2022/01/16 00:26:30;;;;;;;26.43;18.07;;;4.00;99.90;;;;;;5020968;28;20182;-79
2022/01/16 00:28:56;;;;;;;26.00;19.03;;;4.00;99.90;;;;;;5001874;28;20182;-79
2022/01/16 00:31:23;;;;;;;23.70;16.57;;;4.00;99.90;;;;;;5017736;28;20183;-79
2022/01/16 00:33:50;;;;;;;22.47;17.20;;;3.90;99.90;;;;;;5020061;28;20255;-79
2022/01/16 00:36:18;;;;;;;25.43;17.37;;;3.90;99.90;;;;;;5038739;28;20177;-79
2022/01/16 00:38:46;;;;;;;24.93;17.53;;;3.90;99.90;;;;;;5036864;28;20193;-79
2022/01/16 00:41:14;;;;;;;24.10;16.90;;;3.90;99.90;;;;;;5023732;28;20202;-79
2022/01/16 00:43:51;;;;;;;25.97;17.60;;;3.90;99.90;;;;;;5023330;28;20285;-79
2022/01/16 00:46:17;;;;;;;25.07;17.30;;;3.90;99.90;;;;;;5005073;28;20204;-80
2022/01/16 00:48:44;;;;;;;26.67;16.83;;;3.80;99.90;;;;;;5020795;28;20257;-79
2022/01/16 00:51:10;;;;;;;23.13;16.70;;;3.90;99.90;;;;;;5022311;28;20277;-79
2022/01/16 00:53:42;;;;;;;22.23;16.37;;;3.90;99.90;;;;;;5004349;28;20202;-79
2022/01/16 00:56:08;;;;;;;23.83;16.37;;;3.90;99.90;;;;;;5016006;28;20178;-79
2022/01/16 00:58:36;;;;;;;23.80;17.17;;;3.90;99.90;;;;;;5021138;28;20216;-79
2022/01/16 01:01:01;;;;;;;22.57;15.13;;;3.90;99.90;;;;;;5004974;28;20201;-79
2022/01/16 01:03:28;;;;;;;22.00;16.43;;;3.90;99.90;;;;;;5019872;28;20205;-79
2022/01/16 01:05:54;;;;;;;21.97;15.87;;;3.80;99.90;;;;;;5021557;28;20193;-79
2022/01/16 01:08:20;;;;;;;25.90;16.93;;;3.90;99.90;;;;;;5004648;28;21199;-79
2022/01/16 01:10:49;;;;;;;23.60;16.20;;;3.90;99.90;;;;;;5018894;28;20185;-80
2022/01/16 01:13:23;;;;;;;23.63;16.90;;;3.80;99.90;;;;;;5016615;28;20299;-79
2022/01/16 01:15:58;;;;;;;23.30;17.23;;;3.70;99.90;;;;;;5005823;28;20249;-79
2022/01/16 01:18:24;;;;;;;23.67;16.77;;;3.60;99.90;;;;;;5015985;28;20177;-79
2022/01/16 01:20:51;;;;;;;25.07;17.90;;;3.50;99.90;;;;;;5030042;28;20209;-79
2022/01/16 01:23:20;;;;;;;23.50;17.47;;;3.50;99.90;;;;;;5020312;28;20202;-79
2022/01/16 01:25:47;;;;;;;25.77;16.93;;;3.50;99.90;;;;;;5019685;28;20179;-79
2022/01/16 01:28:13;;;;;;;22.80;16.50;;;3.60;99.90;;;;;;5022968;28;20174;-79
2022/01/16 01:30:45;;;;;;;22.37;16.57;;;3.50;99.90;;;;;;5024397;28;20201;-79
2022/01/16 01:33:19;;;;;;;22.80;16.40;;;3.40;99.90;;;;;;5023098;28;20592;-79
2022/01/16 01:35:49;;;;;;;25.33;17.60;;;3.40;99.90;;;;;;5006101;28;20182;-79
2022/01/16 01:38:20;;;;;;;23.03;16.90;;;3.40;99.90;;;;;;5017984;28;20257;-79
2022/01/16 01:40:49;;;;;;;23.03;16.70;;;3.40;99.90;;;;;;5017818;28;20252;-79
2022/01/16 01:51:32;;;;;;;24.77;17.73;;;3.60;99.90;;;;;;5017220;28;20546;-79
2022/01/16 01:53:58;;;;;;;25.70;17.83;;;3.60;99.90;;;;;;5017047;28;20212;-78
2022/01/16 01:56:32;;;;;;;27.00;18.23;;;3.60;99.90;;;;;;5007107;28;20212;-79
2022/01/16 01:59:01;;;;;;;26.60;18.33;;;3.60;99.90;;;;;;5016526;28;20176;-79
2022/01/16 02:01:29;;;;;;;24.93;18.53;;;3.60;99.90;;;;;;5017715;28;20201;-78
2022/01/16 02:03:54;;;;;;;30.17;19.13;;;3.50;99.90;;;;;;5000909;28;20260;-79
2022/01/16 02:06:25;;;;;;;29.77;20.10;;;3.40;99.90;;;;;;5019075;28;20625;-79
2022/01/16 02:08:54;;;;;;;27.13;19.13;;;3.30;99.90;;;;;;5018826;28;20180;-79
2022/01/16 02:11:24;;;;;;;27.47;18.57;;;3.30;99.90;;;;;;5017997;28;20184;-79
2022/01/16 02:14:08;;;;;;;28.00;18.80;;;3.30;99.90;;;;;;5007480;28;20190;-79
2022/01/16 02:35:37;;;;;;;36.83;24.67;;;3.00;99.90;;;;;;5068117;23;20236;-82
2022/01/16 02:38:05;;;;;;;36.23;23.93;;;3.00;99.90;;;;;;5041270;28;20178;-83
2022/01/16 02:40:31;;;;;;;38.27;25.30;;;3.00;99.90;;;;;;5023006;28;20201;-84
2022/01/16 02:42:57;;;;;;;38.90;26.47;;;3.10;99.90;;;;;;5026971;28;20190;-83
2022/01/16 02:45:35;;;;;;;37.93;24.77;;;3.10;99.90;;;;;;5039802;28;20202;-82
2022/01/16 02:48:08;;;;;;;36.03;24.57;;;3.10;99.90;;;;;;5022077;28;20180;-83
2022/01/16 02:50:36;;;;;;;40.87;26.33;;;3.10;99.90;;;;;;5025732;28;20170;-83
2022/01/16 02:53:10;;;;;;;40.03;26.13;;;3.10;99.90;;;;;;5021100;28;20179;-84
2022/01/16 02:55:43;;;;;;;37.10;24.90;;;3.10;99.90;;;;;;5023006;28;20727;-84
2022/01/16 02:58:09;;;;;;;40.70;26.23;;;3.20;99.90;;;;;;5023197;28;20242;-84
2022/01/16 03:00:36;;;;;;;38.33;25.87;;;3.20;99.90;;;;;;5044276;28;20197;-83
2022/01/16 03:03:02;;;;;;;38.90;25.33;;;3.20;99.90;;;;;;5023042;28;20174;-84
2022/01/16 03:05:28;;;;;;;40.50;26.60;;;3.20;99.90;;;;;;5024706;28;20197;-84
2022/01/16 03:07:54;;;;;;;39.90;26.33;;;3.20;99.90;;;;;;5023137;28;20182;-85
2022/01/16 03:12:54;;;;;;;40.03;25.97;;;3.30;99.90;;;;;;5039699;28;20176;-83
2022/01/16 03:15:23;;;;;;;38.73;25.60;;;3.20;99.90;;;;;;5023948;28;20226;-84
2022/01/16 03:23:22;;;;;;;39.03;24.90;;;2.90;99.90;;;;;;5039858;28;20195;-83
2022/01/16 03:25:49;;;;;;;39.30;24.73;;;2.90;99.90;;;;;;5022682;28;20206;-84
2022/01/16 03:28:15;;;;;;;38.57;23.47;;;2.90;99.90;;;;;;5023058;28;20178;-84
2022/01/16 03:30:42;;;;;;;42.93;26.43;;;2.90;99.90;;;;;;5021769;28;20189;-84
2022/01/16 03:33:08;;;;;;;45.10;26.63;;;3.00;99.90;;;;;;5017386;28;20171;-83
2022/01/16 03:35:34;;;;;;;45.23;25.93;;;2.90;99.90;;;;;;5018083;28;20226;-83
2022/01/16 03:38:01;;;;;;;47.90;26.93;;;2.90;99.90;;;;;;5023250;28;20178;-83
2022/01/16 03:40:26;;;;;;;49.43;27.77;;;2.90;99.90;;;;;;5039988;28;20201;-84
2022/01/16 03:42:53;;;;;;;48.70;28.13;;;3.00;99.90;;;;;;5023357;28;20186;-83
2022/01/16 03:45:19;;;;;;;50.47;28.17;;;2.90;99.90;;;;;;5026423;28;20205;-84
2022/01/16 03:47:45;;;;;;;55.73;29.57;;;2.90;99.90;;;;;;5031392;28;20178;-84
2022/01/16 03:50:11;;;;;;;57.00;28.20;;;3.00;99.90;;;;;;5023378;28;20188;-84
2022/01/16 03:52:37;;;;;;;48.57;28.17;;;3.00;99.90;;;;;;5021954;28;20209;-82
2022/01/16 03:55:03;;;;;;;47.70;25.67;;;3.00;99.90;;;;;;5018736;28;20278;-83
2022/01/16 03:57:30;;;;;;;52.43;28.20;;;3.10;99.90;;;;;;5020468;28;20187;-81
2022/01/16 03:59:56;;;;;;;44.80;26.73;;;3.00;99.90;;;;;;5023407;28;20202;-82
2022/01/16 04:02:22;;;;;;;46.20;27.20;;;3.00;99.90;;;;;;5034673;28;20209;-82
2022/01/16 04:04:48;;;;;;;45.07;25.63;;;3.10;99.90;;;;;;5023878;28;20313;-82
2022/01/16 04:07:21;;;;;;;41.33;25.23;;;3.10;99.90;;;;;;5024005;28;20185;-82
2022/01/16 04:09:46;;;;;;;38.77;22.70;;;3.10;99.90;;;;;;5028970;28;20175;-85
2022/01/16 04:12:12;;;;;;;39.80;23.97;;;3.00;99.90;;;;;;5026008;28;20197;-82
2022/01/16 04:17:23;;;;;;;43.30;24.53;;;3.00;99.90;;;;;;5033905;28;20249;-83
2022/01/16 04:19:51;;;;;;;48.00;26.07;;;2.90;99.90;;;;;;5021565;28;20196;-81
2022/01/16 04:22:17;;;;;;;43.47;25.13;;;2.90;99.90;;;;;;5028211;28;20240;-81
2022/01/16 04:24:43;;;;;;;42.30;24.27;;;3.00;99.90;;;;;;5020418;28;20194;-83
2022/01/16 04:27:11;;;;;;;43.63;25.00;;;3.00;99.90;;;;;;5024592;28;20625;-81
2022/01/16 04:29:42;;;;;;;45.13;25.47;;;3.00;99.90;;;;;;5031925;28;20184;-81
2022/01/16 04:32:09;;;;;;;40.57;24.47;;;3.10;99.90;;;;;;5026307;28;20234;-81
2022/01/16 04:34:35;;;;;;;39.27;24.47;;;3.10;99.90;;;;;;5028906;28;20190;-82
2022/01/16 04:37:01;;;;;;;41.30;24.30;;;3.00;99.90;;;;;;5038943;28;20240;-83
2022/01/16 04:39:32;;;;;;;40.27;23.50;;;3.10;99.90;;;;;;5034156;28;20251;-82
2022/01/16 04:44:44;;;;;;;40.20;24.67;;;3.00;99.90;;;;;;5057008;28;20165;-83
2022/01/16 04:47:10;;;;;;;40.73;24.23;;;3.00;99.90;;;;;;5043388;28;20217;-83
2022/01/16 04:49:46;;;;;;;32.63;21.90;;;3.10;99.90;;;;;;5046703;28;20166;-84
2022/01/16 04:52:11;;;;;;;38.37;23.10;;;3.20;99.90;;;;;;5023440;28;20182;-83
2022/01/16 04:54:37;;;;;;;42.57;24.53;;;3.30;99.90;;;;;;5021203;28;20310;-83
2022/01/16 04:57:03;;;;;;;38.17;23.97;;;3.20;99.90;;;;;;5022788;28;20209;-82
2022/01/16 04:59:29;;;;;;;38.13;22.10;;;3.10;99.90;;;;;;5033729;28;20246;-82
2022/01/16 05:01:54;;;;;;;42.17;24.20;;;3.10;99.90;;;;;;5028258;28;20194;-83
2022/01/16 05:04:21;;;;;;;43.70;24.07;;;3.00;99.90;;;;;;5024564;28;20187;-82
2022/01/16 05:06:46;;;;;;;38.40;22.53;;;3.10;99.90;;;;;;5017982;28;20199;-82
2022/01/16 05:09:12;;;;;;;37.50;22.33;;;3.00;99.90;;;;;;5036616;28;20270;-82
2022/01/16 05:11:38;;;;;;;42.50;23.77;;;3.00;99.90;;;;;;5015897;28;20182;-82
2022/01/16 05:16:37;;;;;;;37.40;23.07;;;3.00;99.90;;;;;;5028520;28;20187;-82
2022/01/16 05:19:05;;;;;;;35.00;21.53;;;3.10;99.90;;;;;;5016091;28;20178;-82
2022/01/16 05:21:31;;;;;;;33.57;20.83;;;3.10;99.90;;;;;;5016179;28;20225;-82
2022/01/16 05:23:57;;;;;;;33.93;20.37;;;3.00;99.90;;;;;;5015131;28;20262;-84
2022/01/16 05:26:28;;;;;;;37.27;20.60;;;2.90;99.90;;;;;;5016882;28;20209;-82
2022/01/16 05:28:55;;;;;;;35.00;21.40;;;3.00;99.90;;;;;;5022375;28;20189;-83
2022/01/16 05:31:22;;;;;;;35.37;20.67;;;2.90;99.90;;;;;;5028737;28;20237;-82
2022/01/16 05:33:49;;;;;;;36.20;22.57;;;2.90;99.90;;;;;;5018000;28;20178;-82
2022/01/16 05:36:15;;;;;;;33.57;20.43;;;3.00;99.90;;;;;;5038123;28;20251;-82
2022/01/16 05:38:41;;;;;;;37.50;21.97;;;3.00;99.90;;;;;;5024283;28;20182;-82
2022/01/16 05:41:07;;;;;;;43.77;24.50;;;3.00;99.90;;;;;;5022164;28;20212;-81
2022/01/16 05:43:33;;;;;;;42.40;23.57;;;2.90;99.90;;;;;;5021905;28;20250;-82
2022/01/16 05:45:59;;;;;;;43.60;23.90;;;2.90;99.90;;;;;;5020653;28;20185;-83
2022/01/16 05:48:26;;;;;;;43.93;24.10;;;2.90;99.90;;;;;;5040854;28;20169;-81
2022/01/16 05:50:51;;;;;;;46.63;25.10;;;2.90;99.90;;;;;;5030643;28;20202;-82
2022/01/16 05:53:17;;;;;;;48.27;24.73;;;3.00;99.90;;;;;;5023758;28;20225;-83
2022/01/16 05:55:43;;;;;;;50.33;25.43;;;3.00;99.90;;;;;;5034015;28;20237;-82
2022/01/16 05:58:10;;;;;;;50.83;27.50;;;3.00;99.90;;;;;;5023415;28;20172;-82
2022/01/16 06:00:37;;;;;;;58.23;27.47;;;3.00;99.90;;;;;;5021801;28;20207;-82
2022/01/16 06:03:04;;;;;;;54.70;27.67;;;3.00;99.90;;;;;;5032793;28;20194;-83
2022/01/16 06:05:30;;;;;;;53.67;28.07;;;3.00;99.90;;;;;;5027266;28;20198;-82
2022/01/16 06:08:06;;;;;;;60.63;29.37;;;3.00;99.90;;;;;;5033953;28;20173;-82
2022/01/16 06:10:32;;;;;;;57.97;30.30;;;3.00;99.90;;;;;;5029947;28;20187;-81
2022/01/16 06:12:57;;;;;;;61.53;32.23;;;3.00;99.90;;;;;;5026169;28;20165;-81
2022/01/16 06:15:23;;;;;;;57.07;29.23;;;3.10;99.90;;;;;;5044930;28;20260;-82
2022/01/16 06:18:00;;;;;;;61.53;29.90;;;3.10;99.90;;;;;;5026284;28;20208;-81
2022/01/16 06:20:27;;;;;;;62.53;31.23;;;3.20;99.90;;;;;;5030084;28;20217;-83
2022/01/16 06:22:53;;;;;;;58.87;30.43;;;3.20;99.90;;;;;;5035671;28;20548;-81
2022/01/16 06:25:23;;;;;;;63.03;32.47;;;3.20;99.90;;;;;;5035290;28;20197;-82
2022/01/16 06:27:48;;;;;;;59.63;30.47;;;3.20;99.90;;;;;;5024682;28;20175;-82
2022/01/16 06:30:22;;;;;;;59.00;29.73;;;3.20;99.90;;;;;;5039998;28;20262;-82
2022/01/16 06:32:48;;;;;;;59.60;29.90;;;3.20;99.90;;;;;;5035110;28;20602;-83
2022/01/16 06:35:14;;;;;;;60.90;30.23;;;3.20;99.90;;;;;;5032323;28;20231;-83
2022/01/16 06:37:43;;;;;;;59.43;29.47;;;3.20;99.90;;;;;;5029080;28;20198;-83
2022/01/16 06:40:11;;;;;;;57.93;30.17;;;3.20;99.90;;;;;;5041640;28;20183;-82
2022/01/16 06:42:38;;;;;;;58.10;28.50;;;3.20;99.90;;;;;;5045909;28;20167;-82
2022/01/16 06:45:09;;;;;;;50.63;24.90;;;3.20;99.90;;;;;;5041604;28;20225;-82
2022/01/16 06:47:35;;;;;;;46.53;24.80;;;3.20;99.90;;;;;;5022937;28;20279;-82
2022/01/16 06:50:01;;;;;;;42.47;22.20;;;3.20;99.90;;;;;;5041826;28;20189;-81
2022/01/16 06:52:27;;;;;;;45.57;22.73;;;3.20;99.90;;;;;;5028893;28;20167;-83
2022/01/16 06:54:52;;;;;;;44.90;23.67;;;3.20;99.90;;;;;;5028762;28;20174;-83
2022/01/16 06:57:18;;;;;;;41.77;22.97;;;3.10;99.90;;;;;;5043746;28;20179;-82
2022/01/16 06:59:45;;;;;;;42.67;23.63;;;3.20;99.90;;;;;;5028912;28;20185;-83
2022/01/16 07:02:12;;;;;;;40.80;22.20;;;3.20;99.90;;;;;;5025087;28;20229;-83
2022/01/16 07:04:38;;;;;;;39.97;21.83;;;3.20;99.90;;;;;;5025347;28;20197;-83
2022/01/16 07:07:05;;;;;;;40.37;22.80;;;3.30;99.90;;;;;;5019020;28;20261;-83
2022/01/16 07:09:33;;;;;;;42.07;23.20;;;3.30;99.90;;;;;;5018867;28;20181;-82
2022/01/16 07:11:59;;;;;;;41.60;23.07;;;3.30;99.90;;;;;;5018506;28;20170;-81
2022/01/16 07:14:24;;;;;;;39.90;23.37;;;3.40;99.90;;;;;;5018407;28;20201;-82
2022/01/16 07:16:50;;;;;;;47.90;26.60;;;3.30;99.90;;;;;;5020929;28;20229;-83
2022/01/16 07:19:16;;;;;;;47.00;26.00;;;3.40;99.90;;;;;;5027624;28;20625;-83
2022/01/16 07:21:42;;;;;;;46.10;25.00;;;3.30;99.90;;;;;;5025756;28;20209;-83
2022/01/16 07:24:09;;;;;;;52.77;26.47;;;3.10;99.90;;;;;;5035233;28;20517;-82
2022/01/16 07:26:35;;;;;;;51.50;25.60;;;3.10;99.90;;;;;;5040911;28;20210;-83
2022/01/16 07:29:00;;;;;;;54.27;26.23;;;3.10;99.90;;;;;;5025712;28;20179;-84
2022/01/16 07:31:26;;;;;;;51.87;27.00;;;3.10;99.90;;;;;;5029921;28;20181;-83
2022/01/16 07:33:53;;;;;;;51.00;26.70;;;3.20;99.90;;;;;;5023863;28;20170;-83
2022/01/16 07:36:21;;;;;;;53.63;27.37;;;3.30;99.90;;;;;;5028438;28;20312;-84
2022/01/16 07:38:46;;;;;;;49.43;26.00;;;3.40;99.90;;;;;;5030014;28;20170;-83
2022/01/16 07:41:12;;;;;;;52.77;26.07;;;3.30;99.90;;;;;;5044417;28;20210;-84
2022/01/16 07:43:38;;;;;;;50.50;25.57;;;3.20;99.90;;;;;;5022621;28;20190;-83
2022/01/16 07:46:05;;;;;;;57.70;26.70;;;3.20;99.90;;;;;;5041165;28;20202;-83
2022/01/16 07:48:30;;;;;;;55.20;26.97;;;3.20;99.90;;;;;;5024252;28;20273;-84
2022/01/16 07:50:56;;;;;;;56.13;28.07;;;3.20;99.90;;;;;;5028396;28;20178;-83
2022/01/16 07:53:22;;;;;;;56.90;27.20;;;3.20;99.90;;;;;;5031771;28;20178;-83
2022/01/16 07:55:48;;;;;;;60.00;29.53;;;3.10;99.90;;;;;;5025709;28;20250;-85
2022/01/16 07:58:14;;;;;;;60.07;29.00;;;3.10;99.90;;;;;;5021700;28;20188;-83
2022/01/16 08:00:39;;;;;;;63.33;30.67;;;3.10;99.90;;;;;;5025605;28;20293;-83
2022/01/16 08:03:07;;;;;;;59.90;30.40;;;3.00;99.90;;;;;;5025923;28;20174;-84
2022/01/16 08:05:35;;;;;;;67.47;32.53;;;3.00;99.90;;;;;;5027191;28;20194;-83
2022/01/16 08:08:01;;;;;;;66.77;33.40;;;3.10;99.90;;;;;;5030529;28;20163;-83
2022/01/16 08:10:27;;;;;;;74.67;34.20;;;3.00;99.90;;;;;;5025724;28;20257;-83
2022/01/16 08:12:53;;;;;;;74.50;35.60;;;2.90;99.90;;;;;;5024079;28;20198;-84
2022/01/16 08:15:21;;;;;;;68.70;33.40;;;2.90;99.90;;;;;;5040019;28;20242;-83
2022/01/16 08:17:47;;;;;;;72.47;33.30;;;2.80;99.90;;;;;;5023567;28;20178;-83
2022/01/16 08:20:21;;;;;;;77.80;33.93;;;2.90;99.90;;;;;;5028235;28;20201;-83
2022/01/16 08:22:47;;;;;;;73.90;34.03;;;2.90;99.90;;;;;;5023226;28;20247;-84
2022/01/16 08:25:14;;;;;;;74.47;33.73;;;2.90;99.90;;;;;;5021561;28;20258;-83
2022/01/16 08:27:42;;;;;;;76.03;34.40;;;2.90;99.90;;;;;;5038687;28;20209;-84
2022/01/16 08:30:09;;;;;;;71.77;33.17;;;2.90;99.90;;;;;;5023174;28;20166;-85
2022/01/16 08:32:39;;;;;;;77.83;33.53;;;2.90;99.90;;;;;;5024986;28;20196;-84
2022/01/16 08:35:06;;;;;;;78.43;33.63;;;2.80;99.90;;;;;;5037531;28;20676;-83
2022/01/16 08:37:45;;;;;;;78.33;32.93;;;2.80;99.90;;;;;;5018485;28;20179;-82
2022/01/16 08:40:20;;;;;;;73.60;32.67;;;2.80;99.90;;;;;;5018484;28;20231;-82
2022/01/16 08:42:47;;;;;;;75.87;35.30;;;2.80;99.90;;;;;;5015679;28;20548;-83
2022/01/16 08:45:12;;;;;;;78.33;34.90;;;2.70;99.90;;;;;;5035748;28;20201;-82
2022/01/16 08:47:41;;;;;;;81.30;35.00;;;2.70;99.90;;;;;;5023170;28;20166;-83
2022/01/16 08:50:09;;;;;;;82.13;35.50;;;2.70;99.90;;;;;;5019299;28;20167;-82
2022/01/16 08:52:35;;;;;;;83.37;35.00;;;2.70;99.90;;;;;;5018485;28;20180;-82
2022/01/16 08:55:02;;;;;;;87.90;36.03;;;2.70;99.90;;;;;;5034101;28;20233;-81
2022/01/16 08:57:29;;;;;;;84.07;34.63;;;2.60;99.90;;;;;;5020232;28;20182;-82
2022/01/16 08:59:55;;;;;;;85.63;35.13;;;2.60;99.90;;;;;;5017112;28;20689;-82
2022/01/16 09:02:25;;;;;;;92.13;36.63;;;2.60;99.90;;;;;;5041074;28;20297;-82
2022/01/16 09:04:51;;;;;;;86.30;37.03;;;2.60;99.90;;;;;;5033457;28;20166;-82
2022/01/16 09:07:17;;;;;;;90.23;36.03;;;2.60;99.90;;;;;;5039360;28;20189;-80
2022/01/16 09:09:46;;;;;;;85.03;34.23;;;2.60;99.90;;;;;;5026547;28;20246;-81
2022/01/16 09:12:12;;;;;;;90.83;34.57;;;2.60;99.90;;;;;;5024894;28;20170;-82
2022/01/16 09:14:42;;;;;;;87.40;34.87;;;2.60;99.90;;;;;;5017277;28;20196;-82
2022/01/16 09:17:08;;;;;;;93.13;36.63;;;2.60;99.90;;;;;;5017006;28;20242;-83
2022/01/16 09:19:35;;;;;;;84.80;36.07;;;2.60;99.90;;;;;;5018413;28;20185;-82
2022/01/16 09:22:17;;;;;;;83.83;36.27;;;2.60;99.90;;;;;;5017044;28;20199;-82
2022/01/16 09:24:43;;;;;;;92.37;35.27;;;2.60;99.90;;;;;;5012943;28;20282;-82
2022/01/16 09:27:09;;;;;;;83.57;34.73;;;2.70;99.90;;;;;;5014749;28;20213;-82
2022/01/16 09:29:40;;;;;;;91.27;34.70;;;2.60;99.90;;;;;;5016406;28;20166;-83
2022/01/16 09:32:16;;;;;;;86.97;33.60;;;2.70;99.90;;;;;;5018607;28;20185;-81
2022/01/16 09:34:51;;;;;;;88.80;34.90;;;2.70;99.90;;;;;;5014197;28;20227;-81
2022/01/16 09:37:17;;;;;;;86.90;34.83;;;2.70;99.90;;;;;;5011834;28;20297;-82
2022/01/16 09:39:46;;;;;;;81.83;34.03;;;2.70;99.90;;;;;;5035034;28;20174;-83
2022/01/16 09:42:15;;;;;;;88.73;35.87;;;2.70;99.90;;;;;;5017228;28;20201;-83
2022/01/16 09:44:40;;;;;;;86.03;35.40;;;2.70;99.90;;;;;;5015961;28;20189;-83
2022/01/16 09:47:07;;;;;;;87.47;35.37;;;2.70;99.90;;;;;;5013837;28;20174;-83
2022/01/16 09:49:33;;;;;;;95.27;36.77;;;2.70;99.90;;;;;;5020358;28;20173;-82
2022/01/16 09:52:01;;;;;;;85.17;34.63;;;2.70;99.90;;;;;;5018107;28;20178;-84
2022/01/16 09:54:27;;;;;;;95.30;36.23;;;2.60;99.90;;;;;;5034549;28;20200;-82
2022/01/16 09:56:55;;;;;;;91.10;34.07;;;2.60;99.90;;;;;;5020434;28;20197;-83
2022/01/16 09:59:21;;;;;;;91.70;35.23;;;2.80;99.90;;;;;;5019532;28;20176;-81
2022/01/16 10:01:47;;;;;;;92.20;35.77;;;2.70;99.90;;;;;;5025805;28;20251;-82
2022/01/16 10:04:43;;;;;;;86.03;34.80;;;2.80;99.90;;;;;;5025416;28;20163;-81
2022/01/16 10:07:14;;;;;;;91.97;36.07;;;2.80;99.90;;;;;;5025888;28;20167;-82
2022/01/16 10:10:10;;;;;;;95.70;36.73;;;2.80;99.90;;;;;;5029971;28;20242;-82
2022/01/16 10:12:41;;;;;;;92.03;36.20;;;2.80;99.90;;;;;;5029080;28;20158;-81
2022/01/16 10:15:35;;;;;;;92.60;35.73;;;2.90;99.90;;;;;;5044256;28;20178;-80
2022/01/16 10:18:05;;;;;;;96.57;36.57;;;2.90;99.90;;;;;;5027786;28;20154;-80
2022/01/16 10:20:42;;;;;;;92.17;35.57;;;2.90;99.90;;;;;;5028566;28;20205;-82
2022/01/16 10:23:17;;;;;;;80.20;34.37;;;2.90;99.90;;;;;;5028617;28;20178;-83
2022/01/16 10:25:47;;;;;;;89.20;36.77;;;2.90;99.90;;;;;;5021645;28;20200;-83
2022/01/16 10:28:26;;;;;;;96.00;36.47;;;2.90;99.90;;;;;;5019470;28;20201;-84
2022/01/16 10:30:57;;;;;;;80.57;34.37;;;3.00;99.90;;;;;;5016456;28;20162;-83
2022/01/16 10:33:26;;;;;;;86.80;33.87;;;2.90;99.90;;;;;;5011582;28;20188;-85
2022/01/16 10:35:54;;;;;;;90.20;35.77;;;2.90;99.90;;;;;;5017682;28;20269;-84
2022/01/16 10:38:24;;;;;;;83.77;34.40;;;2.90;99.90;;;;;;5017206;28;20190;-84
2022/01/16 10:40:51;;;;;;;89.90;33.33;;;3.00;99.90;;;;;;5017720;28;20198;-83
2022/01/16 10:43:43;;;;;;;89.07;34.40;;;3.00;99.90;;;;;;5021461;28;20182;-83
2022/01/16 10:46:10;;;;;;;80.00;34.87;;;3.10;99.90;;;;;;5018333;28;20194;-84
2022/01/16 10:48:37;;;;;;;84.90;33.70;;;3.10;99.90;;;;;;5019728;28;20646;-84
2022/01/16 10:51:03;;;;;;;92.30;34.67;;;3.10;99.90;;;;;;5037432;28;20178;-83
2022/01/16 10:53:31;;;;;;;80.10;34.57;;;3.10;99.90;;;;;;5036016;28;20202;-83
2022/01/16 10:55:59;;;;;;;85.23;33.50;;;3.10;99.90;;;;;;5020499;28;20198;-82
2022/01/16 10:58:41;;;;;;;74.87;32.67;;;3.20;99.90;;;;;;5020055;28;20185;-82
2022/01/16 11:01:16;;;;;;;92.80;34.53;;;3.20;99.90;;;;;;5017235;28;20247;-84
2022/01/16 11:03:48;;;;;;;83.37;34.00;;;3.20;99.90;;;;;;5020888;28;20186;-85
2022/01/16 11:06:16;;;;;;;74.47;31.03;;;3.20;99.90;;;;;;5020352;28;20194;-82
2022/01/16 11:08:53;;;;;;;75.13;31.83;;;3.20;99.90;;;;;;5016358;28;20173;-83
2022/01/16 11:11:20;;;;;;;73.73;29.80;;;3.20;99.90;;;;;;5016453;28;20174;-83
2022/01/16 11:13:46;;;;;;;79.20;32.90;;;3.20;99.90;;;;;;5016062;28;20174;-82
2022/01/16 11:16:13;;;;;;;78.77;32.30;;;3.20;99.90;;;;;;5027555;28;20194;-82
2022/01/16 11:18:48;;;;;;;78.33;32.03;;;3.20;99.90;;;;;;5028629;28;20233;-84
2022/01/16 11:21:19;;;;;;;67.00;30.27;;;3.20;99.90;;;;;;5023779;28;20201;-82
2022/01/16 11:26:22;;;;;;;76.50;31.87;;;3.20;99.90;;;;;;5036498;28;20210;-85
2022/01/16 11:28:51;;;;;;;71.93;29.07;;;3.30;99.90;;;;;;5032937;28;20175;-83
2022/01/16 11:31:17;;;;;;;70.87;29.07;;;3.30;99.90;;;;;;5018406;28;20193;-84
2022/01/16 11:33:46;;;;;;;72.07;29.67;;;3.30;99.90;;;;;;5018834;28;20174;-83
2022/01/16 11:36:25;;;;;;;71.57;28.83;;;3.30;99.90;;;;;;5018326;28;20288;-83
2022/01/16 11:38:57;;;;;;;68.53;29.30;;;3.30;99.90;;;;;;5015132;28;20163;-84
2022/01/16 11:41:51;;;;;;;67.03;28.73;;;3.30;99.90;;;;;;5032814;28;20198;-83
2022/01/16 11:44:31;;;;;;;72.20;28.97;;;3.30;99.90;;;;;;5015679;28;20190;-82
2022/01/16 11:46:59;;;;;;;71.33;29.87;;;3.30;99.90;;;;;;5013695;28;20202;-82
2022/01/16 11:49:46;;;;;;;67.23;28.83;;;3.30;99.90;;;;;;5016423;28;20183;-82
2022/01/16 11:52:17;;;;;;;72.50;30.10;;;3.20;99.90;;;;;;5014205;28;20182;-84
2022/01/16 11:54:47;;;;;;;67.10;28.73;;;3.30;99.90;;;;;;5017069;28;20170;-83
2022/01/16 11:57:18;;;;;;;74.13;31.63;;;3.30;99.90;;;;;;5019121;28;20186;-83
2022/01/16 12:00:17;;;;;;;68.67;29.57;;;3.30;99.90;;;;;;5032974;28;20220;-84
2022/01/16 12:02:52;;;;;;;77.20;29.67;;;3.30;99.90;;;;;;5023581;28;20212;-84
2022/01/16 12:05:23;;;;;;;71.90;30.73;;;3.30;99.90;;;;;;5033040;28;20229;-83
2022/01/16 12:07:50;;;;;;;71.67;29.07;;;3.30;99.90;;;;;;5013010;28;20174;-82
2022/01/16 12:10:37;;;;;;;72.57;30.50;;;3.30;99.90;;;;;;5028617;28;20205;-82
2022/01/16 12:13:43;;;;;;;72.83;29.97;;;3.40;99.90;;;;;;5013846;28;20209;-82
2022/01/16 12:16:31;;;;;;;70.23;28.40;;;3.40;99.90;;;;;;5020251;28;20293;-82
2022/01/16 12:19:37;;;;;;;76.63;31.60;;;3.40;99.90;;;;;;5021185;28;20197;-83
2022/01/16 12:22:05;;;;;;;80.77;31.43;;;3.50;99.90;;;;;;5014954;28;20204;-81
2022/01/16 12:24:47;;;;;;;77.13;30.87;;;3.40;99.90;;;;;;5016141;28;20174;-82
2022/01/16 12:27:44;;;;;;;78.67;31.77;;;3.50;99.90;;;;;;5013596;28;20233;-82
2022/01/16 12:30:14;;;;;;;87.00;32.53;;;3.50;99.90;;;;;;5032972;28;20175;-82
2022/01/16 12:32:58;;;;;;;77.67;31.73;;;3.50;99.90;;;;;;5017200;28;20175;-83
2022/01/16 12:36:00;;;;;;;86.17;32.40;;;3.50;99.90;;;;;;5021888;28;20213;-81
2022/01/16 12:38:28;;;;;;;91.87;34.57;;;3.50;99.90;;;;;;4946850;28;20198;-83
2022/01/16 12:41:00;;;;;;;88.20;34.07;;;3.60;99.90;;;;;;5017637;28;20262;-81
2022/01/16 12:43:33;;;;;;;84.30;33.87;;;3.60;99.90;;;;;;5028233;28;20194;-81
2022/01/16 12:46:03;;;;;;;78.00;31.73;;;3.60;99.90;;;;;;5011432;28;20202;-82
2022/01/16 12:48:30;;;;;;;83.27;34.87;;;3.70;99.90;;;;;;5030497;28;20173;-81
2022/01/16 12:51:06;;;;;;;95.47;35.73;;;3.70;99.90;;;;;;5016853;28;20189;-80
2022/01/16 12:53:44;;;;;;;91.73;35.67;;;3.70;99.90;;;;;;5021179;28;20186;-83
2022/01/16 12:56:31;;;;;;;96.47;36.07;;;3.70;99.90;;;;;;5014459;28;20679;-81
2022/01/16 12:59:11;;;;;;;80.87;35.00;;;3.80;99.90;;;;;;5019889;28;20197;-83
2022/01/16 13:01:48;;;;;;;86.83;34.47;;;3.80;99.90;;;;;;5021366;28;20218;-82
2022/01/16 13:04:33;;;;;;;81.37;34.83;;;3.90;99.90;;;;;;5033573;28;20235;-82
2022/01/16 13:07:17;;;;;;;80.50;34.20;;;3.90;99.90;;;;;;5013586;28;20259;-82
2022/01/16 13:09:46;;;;;;;87.90;35.30;;;4.00;99.90;;;;;;5019121;28;20167;-81
2022/01/16 13:12:14;;;;;;;88.27;36.17;;;4.00;99.90;;;;;;5026445;28;20189;-81
2022/01/16 13:14:42;;;;;;;89.03;36.97;;;4.10;99.90;;;;;;5018396;28;20270;-82
2022/01/16 13:17:10;;;;;;;88.73;36.63;;;4.10;99.90;;;;;;5030439;28;20205;-82
2022/01/16 13:19:51;;;;;;;81.17;35.10;;;4.10;99.90;;;;;;5025643;28;20255;-81
2022/01/16 13:22:32;;;;;;;83.33;37.77;;;4.20;99.90;;;;;;5025130;28;20282;-85
2022/01/16 13:25:04;;;;;;;90.00;37.10;;;4.20;99.90;;;;;;5040113;28;20167;-84
2022/01/16 13:27:45;;;;;;;80.00;36.03;;;4.30;99.90;;;;;;5026319;28;20658;-83
2022/01/16 13:30:26;;;;;;;83.37;38.07;;;4.40;99.90;;;;;;5021551;28;20177;-86
2022/01/16 13:33:18;;;;;;;88.97;39.00;;;4.50;99.90;;;;;;5027829;28;20193;-84
2022/01/16 13:36:13;;;;;;;85.93;37.97;;;4.50;99.90;;;;;;5147452;23;20233;-84
2022/01/16 13:38:50;;;;;;;81.77;39.67;;;4.60;99.90;;;;;;5027543;28;20193;-88